KMIB/MIB METAR and TAF weather

Enter ICAO airport designator
Station Type Date Time Source
KMIB METAR 2022/06/29 23:56 UTC NOAA

KMIB 292356Z 16003KT 10SM FEW170 28/07 A2968 RMK AO2A SLP049 57010


Station Type Date Time Source
KMIB Decoded METAR 2022/06/29 23:56 UTC NOAA

Minot Air Force Base, ND, United States (KMIB) 48-25N 101-21W
Jun 29, 2022 - 07:56 PM EDT / 2022.06.29 2356 UTC
Wind: from the SSE (160 degrees) at 3 MPH (3 KT):0
Visibility: 10 mile(s):0
Sky conditions: mostly clear
Temperature: 82 F (28 C)
Dew Point: 44 F (7 C)
Relative Humidity: 26%
Pressure (altimeter): 29.68 in. Hg (1005 hPa)
Pressure tendency: 0.03 inches (1.0 hPa) lower than three hours ago
ob: KMIB 292356Z 16003KT 10SM FEW170 28/07 A2968 RMK AO2A SLP049 57010
cycle: 0

Station Type Date Time Source
KMIB TAF 2022/06/29 17:06 UTC NOAA

TAF KMIB 291700Z 2917/3023 18010KT 9999 FEW050 FEW100 QNH2964INS
TEMPO 2923/3002 8000 -SHRA BKN035
BECMG 3001/3002 26010G15KT 9999 SCT040 SCT100 QNH2964INS
BECMG 3009/3010 29009KT 9999 SCT100 QNH2973INS
BECMG 3011/3012 29012KT 9999 SCT015 BKN030 QNH2977INS
BECMG 3012/3013 30010G15KT 9999 BKN020 OVC030 520053 QNH2979INS
BECMG 3013/3014 31020G25KT 8000 -SHRA BKN015 OVC020 QNH2982INS
BECMG 3020/3021 32010G15KT 9999 NSW BKN040 QNH2987INS TX30/2923Z TN15/3011Z

Example: see airport list